Time;durP1;ratioP1;P1;durP2;ratioP2;P2;SDS_P1;SDS_P2;PMS_P1;PMS_P2;Temp;Humidity;BMP_temperature;BMP_pressure;BME280_temperature;BME280_humidity;BME280_pressure;Samples;Min_cycle;Max_cycle;Signal;HPM_P1;HPM_P2
2021/07/27 00:00:36;;;;;;;32.40;23.73;;;18.30;99.90;;;;;;5140794;27;20054;-67
2021/07/27 00:03:02;;;;;;;33.42;27.00;;;18.30;99.90;;;;;;5139248;27;20799;-67
2021/07/27 00:05:30;;;;;;;39.05;29.95;;;18.30;99.90;;;;;;5144032;27;20045;-67
2021/07/27 00:07:56;;;;;;;38.00;27.92;;;18.30;99.90;;;;;;5126501;27;20043;-67
2021/07/27 00:10:23;;;;;;;38.53;28.17;;;18.30;99.90;;;;;;5144035;27;20089;-67
2021/07/27 00:12:49;;;;;;;38.50;29.52;;;18.30;99.90;;;;;;5138343;27;20776;-67
2021/07/27 00:15:15;;;;;;;39.13;28.55;;;18.30;99.90;;;;;;5141192;27;20046;-67
2021/07/27 00:17:40;;;;;;;40.50;28.40;;;18.20;99.90;;;;;;5127889;27;20048;-67
2021/07/27 00:20:07;;;;;;;45.42;31.73;;;18.20;99.90;;;;;;5141792;27;20039;-67
2021/07/27 00:22:33;;;;;;;39.13;29.85;;;18.10;99.90;;;;;;5138557;27;20051;-67
2021/07/27 00:24:59;;;;;;;43.08;30.67;;;18.10;99.90;;;;;;5130955;27;20046;-67
2021/07/27 00:27:24;;;;;;;46.33;33.28;;;18.00;99.90;;;;;;5130016;27;20041;-68
2021/07/27 00:29:50;;;;;;;46.97;32.67;;;18.00;99.90;;;;;;5126050;27;20043;-67
2021/07/27 00:32:16;;;;;;;48.03;34.13;;;18.10;99.90;;;;;;5139576;27;20091;-66
2021/07/27 00:34:42;;;;;;;48.78;34.65;;;18.10;99.90;;;;;;5133217;27;20047;-66
2021/07/27 00:37:17;;;;;;;46.10;33.40;;;18.20;99.90;;;;;;5139786;27;20113;-67
2021/07/27 00:39:43;;;;;;;52.75;36.08;;;18.10;99.90;;;;;;5142033;27;20134;-67
2021/07/27 00:42:10;;;;;;;52.88;37.58;;;18.10;99.90;;;;;;5131924;27;20040;-67
2021/07/27 00:44:36;;;;;;;51.28;34.97;;;18.00;99.90;;;;;;5134063;27;20065;-66
2021/07/27 00:47:02;;;;;;;52.10;35.42;;;18.10;99.90;;;;;;5125643;28;20411;-67
2021/07/27 00:49:28;;;;;;;52.63;35.08;;;18.10;99.90;;;;;;5134249;27;20040;-67
2021/07/27 00:51:54;;;;;;;57.92;36.60;;;18.10;99.90;;;;;;5135944;27;20448;-67
2021/07/27 00:54:20;;;;;;;53.30;36.60;;;18.10;99.90;;;;;;5134421;27;20047;-67
2021/07/27 00:56:47;;;;;;;53.17;35.78;;;18.10;99.90;;;;;;5134586;27;20043;-67
2021/07/27 00:59:13;;;;;;;55.60;37.85;;;18.10;99.90;;;;;;5130573;27;20039;-67
2021/07/27 01:01:40;;;;;;;60.08;38.13;;;18.20;99.90;;;;;;5132781;27;20057;-67
2021/07/27 01:04:06;;;;;;;50.80;35.33;;;18.20;99.90;;;;;;5134086;27;20112;-67
2021/07/27 01:06:32;;;;;;;50.33;33.42;;;18.10;99.90;;;;;;5130015;27;20039;-67
2021/07/27 01:09:00;;;;;;;53.40;37.05;;;18.20;99.90;;;;;;5131100;27;20055;-67
2021/07/27 01:11:26;;;;;;;;;;;18.20;99.90;;;;;;5132040;27;20057;-67
2021/07/27 01:13:52;;;;;;;57.45;36.20;;;18.20;99.90;;;;;;5137598;27;19919;-67
2021/07/27 01:16:27;;;;;;;47.10;34.35;;;18.30;99.90;;;;;;5131226;28;20035;-67
2021/07/27 01:19:16;;;;;;;52.03;32.00;;;18.20;99.90;;;;;;5111670;28;20491;-67
2021/07/27 01:43:40;;;;;;;43.90;30.30;;;18.30;99.90;;;;;;5057899;28;20076;-67
2021/07/27 01:46:07;;;;;;;42.85;30.02;;;18.30;99.90;;;;;;5060391;28;20135;-67
2021/07/27 01:48:33;;;;;;;42.35;28.02;;;18.30;99.90;;;;;;5058771;28;20064;-67
2021/07/27 01:50:59;;;;;;;39.78;29.20;;;18.30;99.90;;;;;;5051099;28;20080;-67
2021/07/27 01:53:44;;;;;;;37.97;26.98;;;18.20;99.90;;;;;;5059083;28;20065;-67
2021/07/27 01:56:10;;;;;;;41.72;29.23;;;18.20;99.90;;;;;;5050500;28;20072;-67
2021/07/27 01:58:36;;;;;;;41.10;28.60;;;18.20;99.90;;;;;;5054486;28;20054;-66
2021/07/27 02:01:02;;;;;;;47.53;31.73;;;18.10;99.90;;;;;;5059263;28;20524;-67
2021/07/27 02:03:28;;;;;;;39.35;28.08;;;18.10;99.90;;;;;;5062174;28;20121;-66
2021/07/27 02:05:54;;;;;;;37.45;27.15;;;18.10;99.90;;;;;;5059185;28;20053;-67
2021/07/27 02:08:21;;;;;;;42.95;30.88;;;18.10;99.90;;;;;;5051735;28;20056;-66
2021/07/27 02:10:52;;;;;;;44.05;29.40;;;18.10;99.90;;;;;;5061879;28;20052;-67
2021/07/27 02:13:28;;;;;;;44.58;29.98;;;18.10;99.90;;;;;;5064556;28;20057;-66
2021/07/27 02:15:55;;;;;;;46.45;29.33;;;18.10;99.90;;;;;;5056874;28;20045;-66
2021/07/27 02:18:21;;;;;;;47.90;30.73;;;18.10;99.90;;;;;;5050809;28;20049;-67
2021/07/27 02:20:47;;;;;;;47.55;31.90;;;18.00;99.90;;;;;;5117378;27;20040;-66
2021/07/27 02:23:13;;;;;;;52.53;31.58;;;18.00;99.90;;;;;;5133167;27;20047;-66
2021/07/27 02:25:39;;;;;;;43.38;30.13;;;18.00;99.90;;;;;;5136057;27;20044;-66
2021/07/27 02:28:09;;;;;;;52.58;33.22;;;18.00;99.90;;;;;;5136838;27;20108;-67
2021/07/27 02:30:37;;;;;;;49.47;32.47;;;18.00;99.90;;;;;;5137660;27;20048;-66
2021/07/27 02:33:04;;;;;;;64.30;33.45;;;18.00;99.90;;;;;;5145320;27;20043;-67
2021/07/27 02:35:34;;;;;;;39.17;25.90;;;18.00;99.90;;;;;;5143300;27;20043;-67
2021/07/27 02:38:00;;;;;;;53.55;30.60;;;17.90;99.90;;;;;;5135222;27;20091;-68
2021/07/27 02:40:26;;;;;;;53.00;28.77;;;17.80;99.90;;;;;;5140498;27;20051;-67
2021/07/27 02:42:51;;;;;;;56.95;30.85;;;17.80;99.90;;;;;;5134232;27;20039;-67
2021/07/27 02:45:23;;;;;;;42.92;24.45;;;17.60;99.90;;;;;;5133447;27;20039;-68
2021/07/27 02:47:49;;;;;;;36.90;21.20;;;17.50;99.90;;;;;;5138971;27;20036;-69
2021/07/27 02:50:15;;;;;;;35.10;21.02;;;17.50;99.90;;;;;;5136674;27;20111;-69
2021/07/27 02:52:42;;;;;;;44.17;22.13;;;17.50;99.90;;;;;;5143552;27;20091;-70
2021/07/27 02:55:09;;;;;;;32.43;18.67;;;17.50;99.90;;;;;;5128430;27;20040;-69
2021/07/27 02:57:35;;;;;;;31.02;17.98;;;17.40;99.90;;;;;;5127728;27;20297;-68
2021/07/27 03:00:01;;;;;;;30.15;17.63;;;17.50;99.90;;;;;;5130694;27;20042;-68
2021/07/27 03:02:40;;;;;;;34.85;17.88;;;17.40;99.90;;;;;;5144465;27;20043;-68
2021/07/27 03:05:07;;;;;;;30.77;17.90;;;17.40;99.90;;;;;;5127829;27;20045;-68
2021/07/27 03:10:18;;;;;;;49.20;26.05;;;17.50;99.90;;;;;;5139644;27;20062;-68
2021/07/27 03:12:53;;;;;;;54.45;28.67;;;17.50;99.90;;;;;;5128958;27;20040;-68
2021/07/27 03:15:24;;;;;;;57.35;30.67;;;17.50;99.90;;;;;;5127214;27;20035;-68
2021/07/27 03:17:57;;;;;;;55.28;30.13;;;17.60;99.90;;;;;;5133175;27;20050;-68
2021/07/27 03:20:25;;;;;;;58.88;31.85;;;17.60;99.90;;;;;;5137910;27;20061;-68
2021/07/27 03:22:51;;;;;;;;;;;17.60;99.90;;;;;;5137395;27;20043;-68
2021/07/27 03:25:18;;;;;;;62.20;32.45;;;17.60;99.90;;;;;;5142811;27;19922;-68
2021/07/27 03:27:46;;;;;;;56.17;29.95;;;17.60;99.90;;;;;;5137568;27;20047;-68
2021/07/27 03:30:13;;;;;;;61.28;31.27;;;17.60;99.90;;;;;;5128739;27;20062;-68
2021/07/27 03:32:40;;;;;;;45.97;27.55;;;17.60;99.90;;;;;;5136625;27;20052;-68
2021/07/27 03:35:06;;;;;;;43.53;26.92;;;17.60;99.90;;;;;;5132645;27;20043;-68
2021/07/27 03:37:34;;;;;;;44.25;26.88;;;17.60;99.90;;;;;;5141576;27;20073;-67
2021/07/27 03:40:01;;;;;;;41.17;25.27;;;17.60;99.90;;;;;;5132078;27;20138;-67
2021/07/27 03:42:27;;;;;;;42.15;25.60;;;17.60;99.90;;;;;;5137409;27;20044;-68
2021/07/27 03:44:57;;;;;;;42.05;25.98;;;17.60;99.90;;;;;;5126574;27;20074;-68
2021/07/27 03:47:24;;;;;;;40.65;25.48;;;17.50;99.90;;;;;;5127808;27;20046;-68
2021/07/27 03:49:50;;;;;;;47.63;27.17;;;17.60;99.90;;;;;;5128865;27;20050;-68
2021/07/27 03:52:16;;;;;;;40.63;26.13;;;17.50;99.90;;;;;;5126785;27;20047;-68
2021/07/27 03:54:42;;;;;;;40.83;23.77;;;17.50;99.90;;;;;;5135556;27;20077;-68
2021/07/27 03:57:07;;;;;;;38.72;26.55;;;17.50;99.90;;;;;;5127763;27;20177;-68
2021/07/27 03:59:34;;;;;;;51.80;28.35;;;17.50;99.90;;;;;;5130606;27;20093;-67
2021/07/27 04:02:01;;;;;;;45.15;26.15;;;17.50;99.90;;;;;;5126041;27;20077;-69
2021/07/27 04:04:27;;;;;;;38.05;24.77;;;17.50;99.90;;;;;;5135619;27;20111;-69
2021/07/27 04:06:53;;;;;;;41.15;25.38;;;17.40;99.90;;;;;;5127989;27;20027;-68
2021/07/27 04:09:19;;;;;;;46.40;26.80;;;17.40;99.90;;;;;;5130327;27;20043;-68
2021/07/27 04:11:45;;;;;;;50.92;27.95;;;17.30;99.90;;;;;;5131084;27;20055;-69
2021/07/27 04:14:11;;;;;;;50.58;29.70;;;17.30;99.90;;;;;;5127032;27;20047;-69
2021/07/27 04:16:38;;;;;;;42.05;26.25;;;17.20;99.90;;;;;;5127237;27;20100;-68
2021/07/27 04:19:04;;;;;;;52.35;29.75;;;17.20;99.90;;;;;;5131682;27;20039;-68
2021/07/27 04:21:30;;;;;;;50.67;29.05;;;17.10;99.90;;;;;;5132937;27;20147;-68
2021/07/27 04:23:58;;;;;;;45.28;28.05;;;17.10;99.90;;;;;;5136342;27;20453;-68
2021/07/27 04:26:25;;;;;;;62.50;30.67;;;17.10;99.90;;;;;;5133888;27;20069;-68
2021/07/27 04:28:51;;;;;;;52.55;29.63;;;17.00;99.90;;;;;;5131591;27;20073;-68
2021/07/27 04:31:18;;;;;;;45.83;27.35;;;17.00;99.90;;;;;;5136555;27;20039;-68
2021/07/27 04:33:43;;;;;;;51.33;29.85;;;16.90;99.90;;;;;;5142060;27;20050;-68
2021/07/27 04:36:10;;;;;;;59.92;30.42;;;16.90;99.90;;;;;;5143235;27;20039;-69
2021/07/27 04:38:36;;;;;;;48.42;28.48;;;16.90;99.90;;;;;;5135733;27;20070;-68
2021/07/27 04:41:06;;;;;;;55.45;30.27;;;16.90;99.90;;;;;;5139319;27;20043;-68
2021/07/27 04:43:32;;;;;;;52.47;30.17;;;16.90;99.90;;;;;;5132042;27;20046;-68
2021/07/27 04:45:58;;;;;;;59.85;28.83;;;16.90;99.90;;;;;;5130459;27;20525;-68
2021/07/27 04:48:24;;;;;;;48.40;28.20;;;16.90;99.90;;;;;;5138545;27;20089;-68
2021/07/27 04:50:50;;;;;;;48.60;27.42;;;16.90;99.90;;;;;;5125580;27;20047;-68
2021/07/27 04:53:21;;;;;;;42.72;27.33;;;16.80;99.90;;;;;;5133777;27;20048;-68
2021/07/27 04:55:47;;;;;;;46.15;27.35;;;16.90;99.90;;;;;;5135778;27;20099;-69
2021/07/27 04:58:13;;;;;;;53.83;28.08;;;16.80;99.90;;;;;;5133327;27;20122;-68
2021/07/27 05:00:38;;;;;;;42.53;24.73;;;16.90;99.90;;;;;;5130999;27;20043;-69
2021/07/27 05:03:05;;;;;;;42.45;23.38;;;16.90;99.90;;;;;;5132586;27;20047;-68
2021/07/27 05:05:31;;;;;;;41.53;25.85;;;17.00;99.90;;;;;;5136310;27;20043;-68
2021/07/27 05:07:59;;;;;;;43.72;25.70;;;17.00;99.90;;;;;;5128222;27;20061;-69
2021/07/27 05:10:25;;;;;;;38.42;24.30;;;17.00;99.90;;;;;;5130382;27;20046;-69
2021/07/27 05:12:51;;;;;;;38.90;23.08;;;17.00;99.90;;;;;;5131493;27;20066;-69
2021/07/27 05:15:17;;;;;;;36.00;23.05;;;17.10;99.90;;;;;;5133967;27;20036;-69
2021/07/27 05:17:46;;;;;;;36.20;22.80;;;17.10;99.90;;;;;;5127783;28;20039;-69
2021/07/27 05:20:13;;;;;;;37.05;22.95;;;17.20;99.90;;;;;;5141626;28;20048;-69
2021/07/27 05:22:39;;;;;;;36.28;22.55;;;17.20;99.90;;;;;;5126392;28;20447;-68
2021/07/27 05:25:05;;;;;;;37.65;23.45;;;17.20;99.90;;;;;;5135504;28;20051;-69
2021/07/27 05:27:35;;;;;;;37.43;20.87;;;17.30;99.90;;;;;;5126569;28;20051;-67
2021/07/27 05:30:02;;;;;;;39.10;22.67;;;17.30;99.90;;;;;;5127143;28;20074;-68
2021/07/27 05:32:28;;;;;;;37.42;23.45;;;17.30;99.90;;;;;;5133640;28;20145;-68
2021/07/27 05:34:54;;;;;;;36.58;22.88;;;17.20;99.90;;;;;;5128903;28;20039;-68
2021/07/27 05:37:20;;;;;;;34.60;22.67;;;17.30;99.90;;;;;;5132660;28;20058;-68
2021/07/27 05:39:46;;;;;;;34.92;22.25;;;17.30;99.90;;;;;;5129122;28;20493;-68
2021/07/27 05:42:12;;;;;;;33.08;21.63;;;17.30;99.90;;;;;;5130081;28;20040;-68
2021/07/27 05:44:38;;;;;;;31.42;22.98;;;17.30;99.90;;;;;;5134927;28;20028;-67
2021/07/27 05:47:04;;;;;;;32.95;20.35;;;17.30;99.90;;;;;;5139678;28;20063;-68
2021/07/27 05:49:31;;;;;;;36.05;20.30;;;17.30;99.90;;;;;;5135500;28;20093;-68
2021/07/27 05:51:57;;;;;;;27.40;19.20;;;17.30;99.90;;;;;;5133526;28;20044;-69
2021/07/27 05:54:24;;;;;;;29.75;18.27;;;17.40;99.90;;;;;;5136993;28;20503;-69
2021/07/27 05:56:51;;;;;;;31.50;19.33;;;17.50;99.90;;;;;;5130173;28;20532;-68
2021/07/27 05:59:18;;;;;;;29.70;17.50;;;17.50;99.90;;;;;;5130352;28;20050;-68
2021/07/27 06:01:45;;;;;;;30.92;18.55;;;17.60;99.90;;;;;;5132615;28;20043;-68
2021/07/27 06:04:11;;;;;;;27.98;18.05;;;17.70;99.90;;;;;;5138212;28;20080;-68
2021/07/27 06:06:37;;;;;;;22.83;17.20;;;17.70;99.90;;;;;;5130353;28;20036;-68
2021/07/27 06:09:08;;;;;;;25.73;17.10;;;17.80;99.90;;;;;;5125828;28;20092;-69
2021/07/27 06:11:34;;;;;;;29.38;17.20;;;17.80;99.90;;;;;;5129143;28;20054;-69
2021/07/27 06:14:01;;;;;;;21.37;17.07;;;17.80;99.90;;;;;;5125615;28;20047;-68
2021/07/27 06:16:28;;;;;;;24.50;17.63;;;17.80;99.90;;;;;;5135520;28;20042;-68
2021/07/27 06:18:53;;;;;;;23.73;17.23;;;17.70;99.90;;;;;;5130369;28;20046;-68
2021/07/27 06:21:19;;;;;;;26.90;16.60;;;17.80;99.90;;;;;;5127332;28;20043;-68
2021/07/27 06:23:46;;;;;;;24.45;17.17;;;17.80;99.90;;;;;;5130990;27;20047;-68
2021/07/27 06:26:12;;;;;;;26.23;17.23;;;17.80;99.90;;;;;;5134649;27;20585;-67
2021/07/27 06:28:38;;;;;;;24.05;16.35;;;17.90;99.90;;;;;;5141922;27;20050;-68
2021/07/27 06:31:11;;;;;;;27.20;17.27;;;17.90;99.90;;;;;;5130398;27;20050;-68
2021/07/27 06:33:43;;;;;;;22.80;16.00;;;17.90;99.90;;;;;;5112893;28;20070;-68
2021/07/27 06:36:09;;;;;;;22.17;16.23;;;18.00;99.90;;;;;;5134914;27;20171;-68
2021/07/27 06:38:35;;;;;;;24.27;17.33;;;17.90;99.90;;;;;;5128040;27;20096;-68
2021/07/27 06:41:04;;;;;;;23.75;16.52;;;18.00;99.90;;;;;;5135867;27;20039;-68
2021/07/27 06:43:30;;;;;;;25.00;17.27;;;18.00;99.90;;;;;;5145146;27;20493;-68
2021/07/27 06:45:56;;;;;;;25.30;18.30;;;18.00;99.90;;;;;;5136554;27;20103;-68
2021/07/27 06:48:25;;;;;;;25.40;18.10;;;18.00;99.90;;;;;;5134867;27;20099;-68
2021/07/27 06:50:51;;;;;;;27.88;18.38;;;18.10;99.90;;;;;;5139738;27;20043;-68
2021/07/27 06:53:18;;;;;;;29.13;18.40;;;18.20;99.90;;;;;;5124896;28;20039;-68
2021/07/27 06:55:45;;;;;;;29.00;19.10;;;18.30;99.90;;;;;;5135924;27;20109;-67
2021/07/27 06:58:11;;;;;;;31.52;19.15;;;18.30;99.90;;;;;;5135073;27;20095;-68
2021/07/27 07:00:40;;;;;;;25.58;18.33;;;18.30;99.90;;;;;;5141004;27;20108;-67
2021/07/27 07:03:09;;;;;;;25.70;17.98;;;18.40;99.90;;;;;;5128642;27;20063;-68
2021/07/27 07:05:37;;;;;;;29.00;19.33;;;18.40;99.90;;;;;;5139709;27;20066;-67
2021/07/27 07:08:04;;;;;;;31.40;20.92;;;18.50;99.90;;;;;;5133361;27;20499;-68
2021/07/27 07:10:30;;;;;;;31.60;21.38;;;18.80;99.90;;;;;;5111752;28;20059;-68
2021/07/27 07:12:56;;;;;;;33.13;22.25;;;18.90;99.90;;;;;;5131217;27;20054;-67
2021/07/27 07:15:22;;;;;;;34.90;23.02;;;19.00;99.90;;;;;;5137945;27;20039;-67
2021/07/27 07:17:47;;;;;;;40.05;23.35;;;19.00;99.90;;;;;;5137843;27;20044;-68
2021/07/27 07:20:15;;;;;;;35.58;24.10;;;19.00;99.90;;;;;;5137990;27;20043;-67
2021/07/27 07:22:41;;;;;;;42.88;25.75;;;18.90;99.90;;;;;;5132821;27;20061;-67
2021/07/27 07:25:07;;;;;;;38.63;24.73;;;18.90;99.90;;;;;;5138326;27;20051;-68
2021/07/27 07:27:33;;;;;;;35.50;24.70;;;19.00;99.90;;;;;;5127793;27;20064;-67
2021/07/27 07:29:59;;;;;;;37.42;25.15;;;19.00;99.90;;;;;;5138805;27;20039;-73
2021/07/27 07:32:26;;;;;;;40.75;24.70;;;19.10;99.90;;;;;;5125256;27;20079;-67
2021/07/27 07:34:52;;;;;;;45.80;27.50;;;19.30;99.90;;;;;;5128846;27;20040;-69
2021/07/27 07:37:17;;;;;;;31.88;22.38;;;19.40;99.90;;;;;;5139293;27;20049;-67
2021/07/27 07:39:43;;;;;;;39.13;25.60;;;19.60;99.90;;;;;;5132040;27;20099;-67
2021/07/27 07:42:09;;;;;;;41.92;27.67;;;19.70;99.90;;;;;;5127639;27;20035;-68
2021/07/27 07:44:36;;;;;;;32.33;22.73;;;19.80;99.90;;;;;;5136560;27;20525;-67
2021/07/27 07:47:02;;;;;;;36.38;26.58;;;20.10;99.90;;;;;;5132541;27;20047;-67
2021/07/27 07:49:28;;;;;;;38.80;26.95;;;20.20;99.90;;;;;;5138929;27;20047;-67
2021/07/27 07:51:56;;;;;;;41.75;27.65;;;20.40;99.90;;;;;;5138032;27;20050;-67
2021/07/27 07:54:26;;;;;;;37.28;26.58;;;20.20;99.90;;;;;;5126348;27;20054;-67
2021/07/27 07:56:52;;;;;;;39.95;28.20;;;20.40;99.90;;;;;;5132641;27;20142;-67
2021/07/27 07:59:19;;;;;;;38.28;27.15;;;20.30;99.90;;;;;;5139012;27;20043;-68
2021/07/27 08:01:47;;;;;;;44.30;28.23;;;20.40;99.90;;;;;;5133082;27;20046;-68
2021/07/27 08:04:16;;;;;;;34.20;26.50;;;20.50;99.90;;;;;;5131214;27;20370;-67
2021/07/27 08:06:42;;;;;;;46.00;27.70;;;20.90;99.90;;;;;;5136107;27;20047;-68
2021/07/27 08:09:08;;;;;;;35.57;23.77;;;21.10;99.90;;;;;;5132498;27;20043;-67
2021/07/27 08:11:34;;;;;;;34.78;25.52;;;21.00;99.90;;;;;;5137597;27;20069;-68
2021/07/27 08:14:00;;;;;;;37.55;25.75;;;21.00;99.90;;;;;;5135128;27;20039;-68
2021/07/27 08:16:26;;;;;;;33.05;24.75;;;21.00;99.90;;;;;;5132786;27;20153;-67
2021/07/27 08:18:52;;;;;;;35.83;26.08;;;21.10;99.90;;;;;;5127758;27;20081;-68
2021/07/27 08:21:24;;;;;;;39.22;26.80;;;21.00;99.90;;;;;;5132629;27;20040;-68
2021/07/27 08:23:51;;;;;;;33.75;23.35;;;20.90;99.90;;;;;;5131531;27;20055;-68
2021/07/27 08:26:16;;;;;;;36.23;26.23;;;21.20;99.90;;;;;;5134449;27;20121;-67
2021/07/27 08:28:43;;;;;;;38.50;24.95;;;21.40;99.90;;;;;;5120540;27;20352;-67
2021/07/27 08:31:09;;;;;;;38.72;26.83;;;21.50;99.90;;;;;;5129206;27;20039;-67
2021/07/27 08:33:35;;;;;;;37.63;26.25;;;21.60;99.90;;;;;;5132984;27;20063;-68
2021/07/27 08:36:01;;;;;;;38.33;26.30;;;21.80;99.90;;;;;;5139592;27;20231;-68
2021/07/27 08:38:26;;;;;;;38.67;25.65;;;21.80;99.90;;;;;;5135959;27;20055;-68
2021/07/27 08:40:57;;;;;;;41.33;27.33;;;21.60;99.90;;;;;;5130580;27;20118;-68
2021/07/27 08:43:24;;;;;;;33.75;24.80;;;21.50;99.90;;;;;;5130064;27;20047;-67
2021/07/27 08:45:51;;;;;;;35.22;24.33;;;21.60;99.90;;;;;;5130697;27;20042;-68
2021/07/27 08:48:17;;;;;;;39.10;26.77;;;21.80;99.90;;;;;;5130736;27;20043;-68
2021/07/27 08:50:44;;;;;;;41.67;27.57;;;22.10;99.90;;;;;;5130547;27;20048;-68
2021/07/27 08:53:11;;;;;;;38.20;26.48;;;22.00;99.90;;;;;;5127315;27;20376;-68
2021/07/27 08:55:37;;;;;;;39.88;27.90;;;22.20;99.90;;;;;;5128751;27;20834;-67
2021/07/27 08:58:03;;;;;;;41.10;26.83;;;22.50;99.90;;;;;;5136121;27;20039;-67
2021/07/27 09:00:31;;;;;;;35.55;24.73;;;22.60;99.90;;;;;;5131334;27;20054;-68
2021/07/27 09:03:13;;;;;;;40.17;27.42;;;22.80;99.90;;;;;;5134421;27;20070;-67
2021/07/27 09:05:39;;;;;;;33.05;23.95;;;22.80;99.90;;;;;;5133471;27;20040;-67
2021/07/27 09:08:08;;;;;;;35.95;24.95;;;23.20;99.90;;;;;;5128713;27;20050;-68
2021/07/27 09:10:36;;;;;;;37.10;25.83;;;22.80;99.90;;;;;;5138535;27;20509;-67
2021/07/27 09:13:04;;;;;;;;;;;22.90;99.90;;;;;;5136252;27;20059;-67
2021/07/27 09:15:37;;;;;;;34.17;24.27;;;22.70;99.90;;;;;;5132053;27;19923;-67
2021/07/27 09:18:10;;;;;;;36.83;25.60;;;22.40;99.90;;;;;;5136187;27;20039;-68
2021/07/27 09:20:47;;;;;;;39.30;25.70;;;22.40;99.90;;;;;;5127236;28;20047;-67
2021/07/27 09:23:16;;;;;;;38.10;27.58;;;22.10;99.90;;;;;;5135171;27;20039;-67
2021/07/27 09:25:48;;;;;;;34.35;25.73;;;22.30;99.90;;;;;;5129770;28;20047;-67
2021/07/27 09:28:14;;;;;;;36.92;28.00;;;22.50;99.90;;;;;;5134444;28;20130;-67
2021/07/27 09:30:42;;;;;;;30.70;22.30;;;22.20;99.90;;;;;;5133120;28;20058;-67
2021/07/27 09:33:12;;;;;;;32.33;24.33;;;22.30;99.90;;;;;;5132370;28;20039;-67
2021/07/27 09:35:39;;;;;;;36.35;25.20;;;22.20;99.90;;;;;;5132957;28;20054;-67
2021/07/27 09:38:09;;;;;;;33.13;25.60;;;22.10;99.90;;;;;;5139395;28;20371;-67
2021/07/27 09:40:57;;;;;;;32.45;23.23;;;21.80;99.90;;;;;;5130392;28;20089;-67
2021/07/27 09:43:25;;;;;;;41.17;27.00;;;22.00;99.90;;;;;;5125759;28;20457;-67
2021/07/27 09:45:56;;;;;;;33.03;25.42;;;21.90;99.90;;;;;;5135079;28;20039;-67
2021/07/27 09:48:22;;;;;;;32.30;24.65;;;22.00;99.90;;;;;;5132862;28;20035;-67
2021/07/27 09:50:50;;;;;;;32.58;24.30;;;21.90;99.90;;;;;;5128523;28;20051;-66
2021/07/27 09:53:16;;;;;;;;;;;22.10;99.90;;;;;;5135500;28;20043;-67
2021/07/27 09:55:42;;;;;;;32.58;24.20;;;22.10;99.90;;;;;;5124861;28;19920;-67
2021/07/27 09:58:08;;;;;;;30.65;22.25;;;22.20;99.90;;;;;;5131957;27;20066;-67
2021/07/27 10:00:50;;;;;;;28.15;21.20;;;22.40;99.90;;;;;;5146061;27;20077;-68
2021/07/27 10:03:28;;;;;;;25.75;20.80;;;22.70;99.90;;;;;;5139002;27;20065;-67
2021/07/27 10:05:55;;;;;;;22.98;19.17;;;22.90;99.90;;;;;;5135754;27;20121;-66
2021/07/27 10:08:28;;;;;;;26.92;19.90;;;23.10;99.90;;;;;;5145078;27;20046;-67
2021/07/27 10:11:09;;;;;;;25.98;19.92;;;23.30;99.90;;;;;;5140813;27;20044;-66
2021/07/27 10:13:39;;;;;;;26.63;19.25;;;23.40;99.90;;;;;;5145049;27;20100;-66
2021/07/27 10:16:06;;;;;;;29.50;22.23;;;23.40;99.90;;;;;;5137253;27;20075;-67
2021/07/27 10:18:33;;;;;;;26.07;21.57;;;23.10;99.90;;;;;;5133705;27;20099;-67
2021/07/27 10:21:25;;;;;;;23.75;20.08;;;23.10;99.90;;;;;;5133159;27;20050;-67
2021/07/27 10:23:51;;;;;;;24.58;18.63;;;23.00;99.90;;;;;;5132794;27;20059;-66
2021/07/27 10:26:29;;;;;;;27.13;21.70;;;23.20;99.90;;;;;;5132308;27;20040;-66
2021/07/27 10:28:56;;;;;;;29.55;22.55;;;23.00;99.90;;;;;;5127208;27;20256;-66
2021/07/27 10:31:35;;;;;;;31.30;24.48;;;22.90;99.90;;;;;;5133290;27;20040;-67
2021/07/27 10:34:03;;;;;;;28.30;22.05;;;22.80;99.90;;;;;;5130231;27;20042;-67
2021/07/27 10:36:34;;;;;;;26.30;20.60;;;22.80;99.90;;;;;;5134640;27;20072;-66
2021/07/27 10:39:14;;;;;;;24.40;20.25;;;23.00;99.90;;;;;;5143367;27;20164;-67
2021/07/27 10:41:45;;;;;;;27.52;19.48;;;23.10;99.90;;;;;;5129982;27;20063;-67
2021/07/27 10:44:16;;;;;;;28.98;22.85;;;23.40;99.90;;;;;;5131465;27;20077;-66
2021/07/27 10:46:46;;;;;;;23.73;21.13;;;23.40;99.90;;;;;;5131530;27;20160;-66
2021/07/27 10:49:27;;;;;;;30.85;21.88;;;23.60;99.90;;;;;;5132550;27;20387;-66
2021/07/27 10:51:58;;;;;;;24.90;20.13;;;23.60;99.90;;;;;;5135149;27;20092;-66
2021/07/27 10:54:33;;;;;;;30.55;23.08;;;24.00;99.90;;;;;;5143519;27;20069;-66
2021/07/27 10:57:06;;;;;;;34.17;22.35;;;24.10;99.90;;;;;;5137862;27;20047;-66
2021/07/27 10:59:35;;;;;;;24.08;19.42;;;23.90;99.90;;;;;;5140685;27;20046;-66
2021/07/27 11:02:13;;;;;;;29.08;21.65;;;23.90;99.90;;;;;;5144441;27;20039;-66
2021/07/27 11:04:39;;;;;;;;;;;23.70;99.90;;;;;;5142015;27;20058;-66
2021/07/27 11:07:13;;;;;;;23.67;18.92;;;23.40;99.90;;;;;;5140868;27;20374;-66
2021/07/27 11:09:48;;;;;;;25.35;20.50;;;23.80;99.90;;;;;;5139761;27;20044;-66
2021/07/27 11:12:32;;;;;;;20.60;18.13;;;23.90;99.90;;;;;;5140366;27;20047;-66
2021/07/27 11:15:18;;;;;;;23.77;19.60;;;24.10;99.90;;;;;;5138476;27;20087;-65
2021/07/27 11:17:48;;;;;;;22.98;19.23;;;24.00;99.90;;;;;;5140783;27;20077;-66
2021/07/27 11:20:16;;;;;;;19.90;16.58;;;24.40;99.90;;;;;;5133406;27;20410;-66
2021/07/27 11:22:47;;;;;;;22.33;15.60;;;24.10;99.90;;;;;;5137643;27;20039;-66
2021/07/27 11:25:17;;;;;;;16.33;13.93;;;24.60;99.90;;;;;;5129999;27;20047;-66
2021/07/27 11:27:43;;;;;;;16.98;13.73;;;24.70;99.90;;;;;;5141276;27;20171;-66
2021/07/27 11:30:10;;;;;;;14.13;12.43;;;24.10;99.90;;;;;;5134204;27;20092;-66
2021/07/27 11:32:41;;;;;;;16.52;13.25;;;24.20;99.90;;;;;;5137760;27;20039;-65
2021/07/27 11:35:08;;;;;;;14.63;11.57;;;24.10;99.90;;;;;;5137466;27;20039;-65
2021/07/27 11:37:34;;;;;;;;;;;24.40;99.90;;;;;;5140992;27;20067;-66
2021/07/27 11:40:00;;;;;;;14.70;12.07;;;24.60;99.90;;;;;;5130707;27;19919;-66
2021/07/27 11:42:30;;;;;;;14.25;11.63;;;24.10;99.90;;;;;;5130943;27;20078;-65
2021/07/27 11:44:57;;;;;;;16.42;12.82;;;24.50;99.90;;;;;;5135412;27;20050;-64
2021/07/27 11:47:24;;;;;;;16.40;12.73;;;24.40;99.90;;;;;;5133548;27;20119;-65
2021/07/27 11:49:56;;;;;;;14.35;12.10;;;24.50;99.90;;;;;;5110975;27;20035;-65
2021/07/27 11:52:28;;;;;;;13.60;10.07;;;24.60;99.90;;;;;;5133782;27;20053;-65
2021/07/27 11:55:01;;;;;;;13.52;10.23;;;24.90;99.90;;;;;;5135674;27;20057;-65
2021/07/27 11:57:28;;;;;;;13.70;10.85;;;25.40;99.90;;;;;;5133904;27;20114;-66
2021/07/27 12:00:08;;;;;;;13.40;11.07;;;26.20;99.90;;;;;;5134243;27;20039;-66
2021/07/27 12:02:34;;;;;;;12.80;11.48;;;26.60;99.90;;;;;;5138164;27;20047;-66
2021/07/27 12:05:01;;;;;;;18.90;11.80;;;26.60;98.20;;;;;;5138018;27;20051;-66
2021/07/27 12:07:27;;;;;;;15.85;10.68;;;26.60;97.30;;;;;;5128959;27;20047;-65
2021/07/27 12:09:53;;;;;;;14.80;10.63;;;26.00;99.00;;;;;;5134144;27;20054;-65
2021/07/27 12:12:19;;;;;;;14.85;10.40;;;26.20;99.80;;;;;;5116856;28;20031;-65
2021/07/27 12:14:45;;;;;;;11.77;9.82;;;26.30;99.00;;;;;;5133405;27;20054;-65
2021/07/27 12:17:11;;;;;;;14.05;11.10;;;25.80;98.50;;;;;;5131440;27;20061;-66
2021/07/27 12:19:37;;;;;;;14.73;10.52;;;25.40;97.50;;;;;;5093919;28;20176;-66
2021/07/27 12:22:02;;;;;;;13.40;10.20;;;25.40;98.90;;;;;;5133756;27;20040;-65
2021/07/27 12:24:28;;;;;;;12.23;10.93;;;25.60;99.90;;;;;;5131740;27;20044;-66
2021/07/27 12:26:54;;;;;;;14.35;10.57;;;25.50;98.90;;;;;;5139410;27;20042;-66
2021/07/27 12:29:20;;;;;;;12.05;10.70;;;25.90;98.30;;;;;;5129501;27;20050;-65
2021/07/27 12:31:46;;;;;;;13.23;11.60;;;25.70;99.00;;;;;;5132462;27;20099;-65
2021/07/27 12:34:12;;;;;;;16.25;10.52;;;25.90;99.00;;;;;;5125378;27;20043;-66
2021/07/27 12:36:38;;;;;;;12.55;9.55;;;26.10;97.80;;;;;;5136872;27;20027;-66
2021/07/27 12:39:04;;;;;;;13.93;10.27;;;26.50;98.30;;;;;;5131190;27;20096;-66
2021/07/27 12:41:29;;;;;;;12.25;9.77;;;26.50;96.70;;;;;;5140107;27;20062;-66
2021/07/27 12:43:55;;;;;;;12.00;10.60;;;26.60;97.60;;;;;;5128198;27;20043;-66
2021/07/27 12:46:24;;;;;;;11.77;9.85;;;26.30;97.80;;;;;;5134402;27;20046;-66
2021/07/27 12:48:51;;;;;;;14.30;12.02;;;26.60;98.30;;;;;;5139744;27;20102;-66
2021/07/27 12:51:19;;;;;;;14.82;12.02;;;26.70;97.40;;;;;;5134119;27;20040;-66
2021/07/27 12:53:45;;;;;;;13.52;11.25;;;26.80;97.80;;;;;;5133122;27;20032;-67
2021/07/27 12:56:14;;;;;;;13.50;10.98;;;26.70;96.20;;;;;;5136595;27;20069;-66